sensor_id;sensor_type;location;lat;lon;timestamp;P1;durP1;ratioP1;P2;durP2;ratioP2
11139;SDS011;5624;49.388;11.350;2022-12-18T00:01:51;42.53;;;25.37;;
11139;SDS011;5624;49.388;11.350;2022-12-18T00:04:21;41.57;;;26.87;;
11139;SDS011;5624;49.388;11.350;2022-12-18T00:06:48;40.17;;;27.40;;
11139;SDS011;5624;49.388;11.350;2022-12-18T00:09:14;41.00;;;26.37;;
11139;SDS011;5624;49.388;11.350;2022-12-18T00:11:41;37.60;;;26.30;;
11139;SDS011;5624;49.388;11.350;2022-12-18T00:14:08;43.53;;;26.57;;
11139;SDS011;5624;49.388;11.350;2022-12-18T00:16:35;41.37;;;22.93;;
11139;SDS011;5624;49.388;11.350;2022-12-18T00:19:02;38.63;;;22.10;;
11139;SDS011;5624;49.388;11.350;2022-12-18T00:21:29;36.17;;;22.60;;
11139;SDS011;5624;49.388;11.350;2022-12-18T00:23:56;36.73;;;23.50;;
11139;SDS011;5624;49.388;11.350;2022-12-18T00:26:23;37.33;;;22.87;;
11139;SDS011;5624;49.388;11.350;2022-12-18T00:28:54;33.80;;;22.40;;
11139;SDS011;5624;49.388;11.350;2022-12-18T00:31:23;37.80;;;24.23;;
11139;SDS011;5624;49.388;11.350;2022-12-18T00:33:50;41.37;;;26.93;;
11139;SDS011;5624;49.388;11.350;2022-12-18T00:36:19;39.73;;;25.00;;
11139;SDS011;5624;49.388;11.350;2022-12-18T00:38:46;42.40;;;24.90;;
11139;SDS011;5624;49.388;11.350;2022-12-18T00:41:13;42.90;;;23.73;;
11139;SDS011;5624;49.388;11.350;2022-12-18T00:44:00;43.33;;;24.13;;
11139;SDS011;5624;49.388;11.350;2022-12-18T00:46:26;36.03;;;22.53;;
11139;SDS011;5624;49.388;11.350;2022-12-18T00:48:51;37.90;;;22.23;;
11139;SDS011;5624;49.388;11.350;2022-12-18T00:51:17;35.23;;;21.87;;
11139;SDS011;5624;49.388;11.350;2022-12-18T00:53:42;37.57;;;23.43;;
11139;SDS011;5624;49.388;11.350;2022-12-18T00:56:08;37.30;;;22.30;;
11139;SDS011;5624;49.388;11.350;2022-12-18T00:58:33;35.90;;;22.27;;
11139;SDS011;5624;49.388;11.350;2022-12-18T01:01:00;31.47;;;20.77;;
11139;SDS011;5624;49.388;11.350;2022-12-18T01:03:26;38.80;;;21.77;;
11139;SDS011;5624;49.388;11.350;2022-12-18T01:05:51;37.03;;;22.33;;
11139;SDS011;5624;49.388;11.350;2022-12-18T01:08:17;37.50;;;21.70;;
11139;SDS011;5624;49.388;11.350;2022-12-18T01:10:42;34.30;;;21.43;;
11139;SDS011;5624;49.388;11.350;2022-12-18T01:13:08;32.90;;;21.47;;
11139;SDS011;5624;49.388;11.350;2022-12-18T01:15:33;30.97;;;19.73;;
11139;SDS011;5624;49.388;11.350;2022-12-18T01:17:59;33.30;;;20.70;;
11139;SDS011;5624;49.388;11.350;2022-12-18T01:20:25;31.80;;;20.33;;
11139;SDS011;5624;49.388;11.350;2022-12-18T01:22:50;30.67;;;19.90;;
11139;SDS011;5624;49.388;11.350;2022-12-18T01:25:16;36.43;;;20.97;;
11139;SDS011;5624;49.388;11.350;2022-12-18T01:27:41;34.00;;;19.77;;
11139;SDS011;5624;49.388;11.350;2022-12-18T01:30:07;35.20;;;20.30;;
11139;SDS011;5624;49.388;11.350;2022-12-18T01:32:33;34.30;;;20.50;;
11139;SDS011;5624;49.388;11.350;2022-12-18T01:34:59;34.37;;;20.63;;
11139;SDS011;5624;49.388;11.350;2022-12-18T01:37:24;30.57;;;19.00;;
11139;SDS011;5624;49.388;11.350;2022-12-18T01:39:50;30.73;;;20.17;;
11139;SDS011;5624;49.388;11.350;2022-12-18T01:42:19;31.27;;;20.53;;
11139;SDS011;5624;49.388;11.350;2022-12-18T01:45:04;36.83;;;22.17;;
11139;SDS011;5624;49.388;11.350;2022-12-18T01:47:55;36.23;;;21.70;;
11139;SDS011;5624;49.388;11.350;2022-12-18T01:53:21;38.17;;;22.27;;
11139;SDS011;5624;49.388;11.350;2022-12-18T01:55:49;36.60;;;22.70;;
11139;SDS011;5624;49.388;11.350;2022-12-18T01:58:21;38.13;;;23.47;;
11139;SDS011;5624;49.388;11.350;2022-12-18T02:00:53;43.33;;;24.03;;
11139;SDS011;5624;49.388;11.350;2022-12-18T02:03:19;35.37;;;21.30;;
11139;SDS011;5624;49.388;11.350;2022-12-18T02:08:41;42.70;;;23.57;;
11139;SDS011;5624;49.388;11.350;2022-12-18T02:14:22;39.30;;;23.27;;
11139;SDS011;5624;49.388;11.350;2022-12-18T02:17:19;42.00;;;23.10;;
11139;SDS011;5624;49.388;11.350;2022-12-18T02:22:24;37.33;;;21.63;;
11139;SDS011;5624;49.388;11.350;2022-12-18T02:27:47;38.33;;;23.33;;
11139;SDS011;5624;49.388;11.350;2022-12-18T02:30:15;44.07;;;24.23;;
11139;SDS011;5624;49.388;11.350;2022-12-18T02:32:47;42.10;;;24.80;;
11139;SDS011;5624;49.388;11.350;2022-12-18T02:35:23;44.27;;;22.93;;
11139;SDS011;5624;49.388;11.350;2022-12-18T02:37:52;43.37;;;24.03;;
11139;SDS011;5624;49.388;11.350;2022-12-18T02:40:19;42.40;;;24.73;;
11139;SDS011;5624;49.388;11.350;2022-12-18T02:42:46;43.60;;;25.40;;
11139;SDS011;5624;49.388;11.350;2022-12-18T02:45:12;49.17;;;25.97;;
11139;SDS011;5624;49.388;11.350;2022-12-18T02:47:39;52.17;;;28.03;;
11139;SDS011;5624;49.388;11.350;2022-12-18T02:50:09;48.83;;;25.13;;
11139;SDS011;5624;49.388;11.350;2022-12-18T02:53:03;54.93;;;28.37;;
11139;SDS011;5624;49.388;11.350;2022-12-18T02:55:59;52.83;;;28.33;;
11139;SDS011;5624;49.388;11.350;2022-12-18T03:01:28;52.53;;;25.80;;
11139;SDS011;5624;49.388;11.350;2022-12-18T03:04:05;49.37;;;25.67;;
11139;SDS011;5624;49.388;11.350;2022-12-18T03:07:20;55.50;;;25.77;;
11139;SDS011;5624;49.388;11.350;2022-12-18T03:09:29;43.67;;;23.70;;
11139;SDS011;5624;49.388;11.350;2022-12-18T03:14:58;42.23;;;23.67;;
11139;SDS011;5624;49.388;11.350;2022-12-18T03:17:37;45.53;;;23.80;;
11139;SDS011;5624;49.388;11.350;2022-12-18T03:20:10;47.20;;;24.70;;
11139;SDS011;5624;49.388;11.350;2022-12-18T03:22:39;53.27;;;27.20;;
11139;SDS011;5624;49.388;11.350;2022-12-18T03:25:09;47.80;;;25.53;;
11139;SDS011;5624;49.388;11.350;2022-12-18T03:27:38;46.33;;;25.23;;
11139;SDS011;5624;49.388;11.350;2022-12-18T03:30:12;51.13;;;25.53;;
11139;SDS011;5624;49.388;11.350;2022-12-18T03:35:08;48.60;;;25.33;;
11139;SDS011;5624;49.388;11.350;2022-12-18T03:37:37;48.80;;;23.40;;
11139;SDS011;5624;49.388;11.350;2022-12-18T03:40:03;46.73;;;24.50;;
11139;SDS011;5624;49.388;11.350;2022-12-18T03:45:18;48.53;;;24.70;;
11139;SDS011;5624;49.388;11.350;2022-12-18T03:47:59;52.63;;;23.53;;
11139;SDS011;5624;49.388;11.350;2022-12-18T03:55:48;50.30;;;24.90;;
11139;SDS011;5624;49.388;11.350;2022-12-18T03:58:16;50.73;;;25.17;;
11139;SDS011;5624;49.388;11.350;2022-12-18T04:00:44;56.57;;;27.27;;
11139;SDS011;5624;49.388;11.350;2022-12-18T04:03:11;50.97;;;24.10;;
11139;SDS011;5624;49.388;11.350;2022-12-18T04:05:39;53.90;;;25.40;;
11139;SDS011;5624;49.388;11.350;2022-12-18T04:08:07;48.87;;;24.07;;
11139;SDS011;5624;49.388;11.350;2022-12-18T04:10:32;47.27;;;24.87;;
11139;SDS011;5624;49.388;11.350;2022-12-18T04:12:58;54.53;;;25.17;;
11139;SDS011;5624;49.388;11.350;2022-12-18T04:15:24;50.13;;;23.63;;
11139;SDS011;5624;49.388;11.350;2022-12-18T04:17:49;46.53;;;24.20;;
11139;SDS011;5624;49.388;11.350;2022-12-18T04:20:15;51.10;;;24.67;;
11139;SDS011;5624;49.388;11.350;2022-12-18T04:22:41;44.63;;;23.87;;
11139;SDS011;5624;49.388;11.350;2022-12-18T04:25:07;40.77;;;22.03;;
11139;SDS011;5624;49.388;11.350;2022-12-18T04:27:33;48.10;;;23.73;;
11139;SDS011;5624;49.388;11.350;2022-12-18T04:29:59;42.00;;;23.80;;
11139;SDS011;5624;49.388;11.350;2022-12-18T04:32:25;46.63;;;23.37;;
11139;SDS011;5624;49.388;11.350;2022-12-18T04:34:50;43.73;;;22.80;;
11139;SDS011;5624;49.388;11.350;2022-12-18T04:37:16;46.80;;;22.93;;
11139;SDS011;5624;49.388;11.350;2022-12-18T04:39:43;47.03;;;23.50;;
11139;SDS011;5624;49.388;11.350;2022-12-18T04:42:08;48.40;;;24.30;;
11139;SDS011;5624;49.388;11.350;2022-12-18T04:44:34;45.53;;;23.57;;
11139;SDS011;5624;49.388;11.350;2022-12-18T04:47:00;48.87;;;23.63;;
11139;SDS011;5624;49.388;11.350;2022-12-18T04:49:26;45.10;;;23.10;;
11139;SDS011;5624;49.388;11.350;2022-12-18T04:51:52;43.40;;;22.43;;
11139;SDS011;5624;49.388;11.350;2022-12-18T04:54:19;47.07;;;22.30;;
11139;SDS011;5624;49.388;11.350;2022-12-18T04:56:44;43.80;;;22.10;;
11139;SDS011;5624;49.388;11.350;2022-12-18T04:59:10;46.13;;;21.87;;
11139;SDS011;5624;49.388;11.350;2022-12-18T05:01:36;44.87;;;23.20;;
11139;SDS011;5624;49.388;11.350;2022-12-18T05:04:02;47.53;;;22.27;;
11139;SDS011;5624;49.388;11.350;2022-12-18T05:06:27;45.13;;;22.90;;
11139;SDS011;5624;49.388;11.350;2022-12-18T05:08:53;43.30;;;23.23;;
11139;SDS011;5624;49.388;11.350;2022-12-18T05:11:19;48.20;;;24.17;;
11139;SDS011;5624;49.388;11.350;2022-12-18T05:13:44;43.83;;;23.67;;
11139;SDS011;5624;49.388;11.350;2022-12-18T05:16:11;42.30;;;22.73;;
11139;SDS011;5624;49.388;11.350;2022-12-18T05:18:37;47.67;;;23.93;;
11139;SDS011;5624;49.388;11.350;2022-12-18T05:21:03;38.40;;;21.50;;
11139;SDS011;5624;49.388;11.350;2022-12-18T05:23:29;50.67;;;22.23;;
11139;SDS011;5624;49.388;11.350;2022-12-18T05:25:59;44.43;;;22.30;;
11139;SDS011;5624;49.388;11.350;2022-12-18T05:28:26;47.97;;;22.07;;
11139;SDS011;5624;49.388;11.350;2022-12-18T05:30:54;48.80;;;23.70;;
11139;SDS011;5624;49.388;11.350;2022-12-18T05:33:22;42.77;;;22.13;;
11139;SDS011;5624;49.388;11.350;2022-12-18T05:35:53;48.67;;;23.63;;
11139;SDS011;5624;49.388;11.350;2022-12-18T05:38:20;51.63;;;23.67;;
11139;SDS011;5624;49.388;11.350;2022-12-18T05:40:47;44.17;;;22.17;;
11139;SDS011;5624;49.388;11.350;2022-12-18T05:43:13;51.50;;;23.90;;
11139;SDS011;5624;49.388;11.350;2022-12-18T05:45:39;48.53;;;23.17;;
11139;SDS011;5624;49.388;11.350;2022-12-18T05:48:06;50.53;;;24.30;;
11139;SDS011;5624;49.388;11.350;2022-12-18T05:50:35;48.97;;;24.27;;
11139;SDS011;5624;49.388;11.350;2022-12-18T05:53:02;50.33;;;22.87;;
11139;SDS011;5624;49.388;11.350;2022-12-18T05:55:28;47.17;;;23.37;;
11139;SDS011;5624;49.388;11.350;2022-12-18T05:57:54;48.53;;;24.27;;
11139;SDS011;5624;49.388;11.350;2022-12-18T06:00:20;46.33;;;23.50;;
11139;SDS011;5624;49.388;11.350;2022-12-18T06:02:48;45.87;;;23.43;;
11139;SDS011;5624;49.388;11.350;2022-12-18T06:05:14;46.53;;;23.33;;
11139;SDS011;5624;49.388;11.350;2022-12-18T06:07:39;45.77;;;22.87;;
11139;SDS011;5624;49.388;11.350;2022-12-18T06:10:05;49.90;;;24.27;;
11139;SDS011;5624;49.388;11.350;2022-12-18T06:12:31;51.27;;;23.77;;
11139;SDS011;5624;49.388;11.350;2022-12-18T06:14:58;48.73;;;23.50;;
11139;SDS011;5624;49.388;11.350;2022-12-18T06:17:28;49.47;;;23.97;;
11139;SDS011;5624;49.388;11.350;2022-12-18T06:19:54;42.47;;;21.97;;
11139;SDS011;5624;49.388;11.350;2022-12-18T06:22:20;44.03;;;24.03;;
11139;SDS011;5624;49.388;11.350;2022-12-18T06:24:46;49.03;;;23.40;;
11139;SDS011;5624;49.388;11.350;2022-12-18T06:27:11;48.57;;;22.03;;
11139;SDS011;5624;49.388;11.350;2022-12-18T06:29:37;42.07;;;22.40;;
11139;SDS011;5624;49.388;11.350;2022-12-18T06:32:03;50.90;;;22.97;;
11139;SDS011;5624;49.388;11.350;2022-12-18T06:34:28;40.90;;;20.43;;
11139;SDS011;5624;49.388;11.350;2022-12-18T06:36:55;46.10;;;23.90;;
11139;SDS011;5624;49.388;11.350;2022-12-18T06:39:21;49.07;;;23.73;;
11139;SDS011;5624;49.388;11.350;2022-12-18T06:41:46;47.97;;;22.97;;
11139;SDS011;5624;49.388;11.350;2022-12-18T06:44:12;47.97;;;23.13;;
11139;SDS011;5624;49.388;11.350;2022-12-18T06:46:37;51.73;;;24.47;;
11139;SDS011;5624;49.388;11.350;2022-12-18T06:49:03;48.47;;;23.03;;
11139;SDS011;5624;49.388;11.350;2022-12-18T06:51:28;45.73;;;22.50;;
11139;SDS011;5624;49.388;11.350;2022-12-18T06:53:54;46.70;;;22.30;;
11139;SDS011;5624;49.388;11.350;2022-12-18T06:56:20;46.00;;;23.03;;
11139;SDS011;5624;49.388;11.350;2022-12-18T06:58:46;45.63;;;22.30;;
11139;SDS011;5624;49.388;11.350;2022-12-18T07:01:12;54.00;;;24.90;;
11139;SDS011;5624;49.388;11.350;2022-12-18T07:03:39;57.37;;;28.83;;
11139;SDS011;5624;49.388;11.350;2022-12-18T07:06:05;46.77;;;24.40;;
11139;SDS011;5624;49.388;11.350;2022-12-18T07:08:31;49.83;;;24.00;;
11139;SDS011;5624;49.388;11.350;2022-12-18T07:10:58;48.47;;;22.80;;
11139;SDS011;5624;49.388;11.350;2022-12-18T07:13:23;40.50;;;20.03;;
11139;SDS011;5624;49.388;11.350;2022-12-18T07:15:49;40.57;;;20.93;;
11139;SDS011;5624;49.388;11.350;2022-12-18T07:18:15;36.20;;;20.67;;
11139;SDS011;5624;49.388;11.350;2022-12-18T07:20:40;41.83;;;22.30;;
11139;SDS011;5624;49.388;11.350;2022-12-18T07:23:06;43.00;;;20.97;;
11139;SDS011;5624;49.388;11.350;2022-12-18T07:25:35;43.37;;;21.77;;
11139;SDS011;5624;49.388;11.350;2022-12-18T07:28:02;41.90;;;21.30;;
11139;SDS011;5624;49.388;11.350;2022-12-18T07:30:28;41.77;;;20.43;;
11139;SDS011;5624;49.388;11.350;2022-12-18T07:32:54;41.37;;;19.73;;
11139;SDS011;5624;49.388;11.350;2022-12-18T07:35:19;42.23;;;21.70;;
11139;SDS011;5624;49.388;11.350;2022-12-18T07:37:45;36.97;;;20.30;;
11139;SDS011;5624;49.388;11.350;2022-12-18T07:40:11;40.53;;;20.53;;
11139;SDS011;5624;49.388;11.350;2022-12-18T07:42:37;38.37;;;19.63;;
11139;SDS011;5624;49.388;11.350;2022-12-18T07:45:03;42.67;;;21.17;;
11139;SDS011;5624;49.388;11.350;2022-12-18T07:47:28;27.17;;;12.07;;
11139;SDS011;5624;49.388;11.350;2022-12-18T07:49:54;34.83;;;15.43;;
11139;SDS011;5624;49.388;11.350;2022-12-18T07:52:21;42.20;;;21.23;;
11139;SDS011;5624;49.388;11.350;2022-12-18T07:54:46;46.17;;;23.60;;
11139;SDS011;5624;49.388;11.350;2022-12-18T07:57:15;37.60;;;19.57;;
11139;SDS011;5624;49.388;11.350;2022-12-18T07:59:41;38.20;;;19.87;;
11139;SDS011;5624;49.388;11.350;2022-12-18T08:02:07;41.57;;;20.23;;
11139;SDS011;5624;49.388;11.350;2022-12-18T08:04:33;39.53;;;20.13;;
11139;SDS011;5624;49.388;11.350;2022-12-18T08:06:58;37.03;;;19.47;;
11139;SDS011;5624;49.388;11.350;2022-12-18T08:09:24;34.30;;;18.80;;
11139;SDS011;5624;49.388;11.350;2022-12-18T08:11:49;41.07;;;19.73;;
11139;SDS011;5624;49.388;11.350;2022-12-18T08:14:15;39.07;;;20.77;;
11139;SDS011;5624;49.388;11.350;2022-12-18T08:16:41;29.07;;;14.00;;
11139;SDS011;5624;49.388;11.350;2022-12-18T08:19:06;29.23;;;14.60;;
11139;SDS011;5624;49.388;11.350;2022-12-18T08:21:32;25.40;;;12.33;;
11139;SDS011;5624;49.388;11.350;2022-12-18T08:23:59;29.90;;;13.23;;
11139;SDS011;5624;49.388;11.350;2022-12-18T08:26:26;29.00;;;13.37;;
11139;SDS011;5624;49.388;11.350;2022-12-18T08:28:55;27.70;;;12.77;;
11139;SDS011;5624;49.388;11.350;2022-12-18T08:31:22;27.30;;;12.03;;
11139;SDS011;5624;49.388;11.350;2022-12-18T08:33:48;36.63;;;18.60;;
11139;SDS011;5624;49.388;11.350;2022-12-18T08:36:15;35.43;;;18.40;;
11139;SDS011;5624;49.388;11.350;2022-12-18T08:38:41;35.03;;;17.83;;
11139;SDS011;5624;49.388;11.350;2022-12-18T08:41:08;30.27;;;17.87;;
11139;SDS011;5624;49.388;11.350;2022-12-18T08:43:35;32.97;;;18.47;;
11139;SDS011;5624;49.388;11.350;2022-12-18T08:46:21;35.07;;;18.43;;
11139;SDS011;5624;49.388;11.350;2022-12-18T08:48:50;31.97;;;17.37;;
11139;SDS011;5624;49.388;11.350;2022-12-18T08:51:16;35.77;;;18.93;;
11139;SDS011;5624;49.388;11.350;2022-12-18T08:53:43;33.70;;;18.93;;
11139;SDS011;5624;49.388;11.350;2022-12-18T08:56:09;35.80;;;18.17;;
11139;SDS011;5624;49.388;11.350;2022-12-18T08:58:35;37.50;;;20.03;;
11139;SDS011;5624;49.388;11.350;2022-12-18T09:01:05;33.37;;;18.57;;
11139;SDS011;5624;49.388;11.350;2022-12-18T09:03:34;38.50;;;22.23;;
11139;SDS011;5624;49.388;11.350;2022-12-18T09:05:59;34.03;;;19.03;;
11139;SDS011;5624;49.388;11.350;2022-12-18T09:08:25;39.27;;;19.20;;
11139;SDS011;5624;49.388;11.350;2022-12-18T09:10:51;32.57;;;18.73;;
11139;SDS011;5624;49.388;11.350;2022-12-18T09:13:17;33.10;;;18.07;;
11139;SDS011;5624;49.388;11.350;2022-12-18T09:15:53;34.87;;;17.93;;
11139;SDS011;5624;49.388;11.350;2022-12-18T09:18:20;39.43;;;19.27;;
11139;SDS011;5624;49.388;11.350;2022-12-18T09:20:47;28.87;;;16.40;;
11139;SDS011;5624;49.388;11.350;2022-12-18T09:23:13;31.30;;;18.13;;
11139;SDS011;5624;49.388;11.350;2022-12-18T09:25:39;30.13;;;15.70;;
11139;SDS011;5624;49.388;11.350;2022-12-18T09:28:06;30.37;;;16.30;;
11139;SDS011;5624;49.388;11.350;2022-12-18T09:30:37;21.90;;;9.97;;
11139;SDS011;5624;49.388;11.350;2022-12-18T09:33:03;24.00;;;10.57;;
11139;SDS011;5624;49.388;11.350;2022-12-18T09:35:29;24.40;;;12.17;;
11139;SDS011;5624;49.388;11.350;2022-12-18T09:37:55;28.17;;;15.70;;
11139;SDS011;5624;49.388;11.350;2022-12-18T09:40:21;32.67;;;16.37;;
11139;SDS011;5624;49.388;11.350;2022-12-18T09:42:59;27.97;;;16.10;;
11139;SDS011;5624;49.388;11.350;2022-12-18T09:45:28;14.50;;;8.40;;
11139;SDS011;5624;49.388;11.350;2022-12-18T09:47:59;29.70;;;16.80;;
11139;SDS011;5624;49.388;11.350;2022-12-18T09:50:26;32.83;;;17.40;;
11139;SDS011;5624;49.388;11.350;2022-12-18T09:52:57;36.67;;;17.43;;
11139;SDS011;5624;49.388;11.350;2022-12-18T09:55:35;33.47;;;17.50;;
11139;SDS011;5624;49.388;11.350;2022-12-18T10:00:54;35.67;;;17.27;;
11139;SDS011;5624;49.388;11.350;2022-12-18T10:03:21;30.07;;;16.67;;
11139;SDS011;5624;49.388;11.350;2022-12-18T10:14:23;28.37;;;16.37;;
11139;SDS011;5624;49.388;11.350;2022-12-18T10:16:56;25.73;;;12.47;;
11139;SDS011;5624;49.388;11.350;2022-12-18T10:19:38;22.07;;;10.37;;
11139;SDS011;5624;49.388;11.350;2022-12-18T10:24:52;27.23;;;15.83;;
11139;SDS011;5624;49.388;11.350;2022-12-18T10:27:31;17.73;;;10.67;;
11139;SDS011;5624;49.388;11.350;2022-12-18T10:29:57;26.83;;;12.67;;
11139;SDS011;5624;49.388;11.350;2022-12-18T10:32:27;25.07;;;12.50;;
11139;SDS011;5624;49.388;11.350;2022-12-18T10:34:55;19.43;;;9.67;;
11139;SDS011;5624;49.388;11.350;2022-12-18T10:37:24;27.17;;;14.53;;
11139;SDS011;5624;49.388;11.350;2022-12-18T10:40:13;28.97;;;15.33;;
11139;SDS011;5624;49.388;11.350;2022-12-18T10:42:40;29.67;;;16.07;;
11139;SDS011;5624;49.388;11.350;2022-12-18T10:45:14;30.37;;;17.70;;
11139;SDS011;5624;49.388;11.350;2022-12-18T10:47:49;29.00;;;15.27;;
11139;SDS011;5624;49.388;11.350;2022-12-18T10:50:28;33.90;;;17.53;;
11139;SDS011;5624;49.388;11.350;2022-12-18T10:52:59;32.70;;;17.73;;
11139;SDS011;5624;49.388;11.350;2022-12-18T10:55:38;31.37;;;17.03;;
11139;SDS011;5624;49.388;11.350;2022-12-18T11:01:03;33.83;;;16.33;;
11139;SDS011;5624;49.388;11.350;2022-12-18T11:06:10;28.83;;;13.10;;
11139;SDS011;5624;49.388;11.350;2022-12-18T11:08:37;24.63;;;11.70;;
11139;SDS011;5624;49.388;11.350;2022-12-18T11:11:03;22.37;;;10.47;;
11139;SDS011;5624;49.388;11.350;2022-12-18T11:13:33;26.33;;;11.87;;
11139;SDS011;5624;49.388;11.350;2022-12-18T11:15:59;27.00;;;12.93;;
11139;SDS011;5624;49.388;11.350;2022-12-18T11:18:27;25.30;;;11.93;;
11139;SDS011;5624;49.388;11.350;2022-12-18T11:21:05;28.37;;;12.60;;
11139;SDS011;5624;49.388;11.350;2022-12-18T11:23:34;24.77;;;11.77;;
11139;SDS011;5624;49.388;11.350;2022-12-18T11:26:03;24.40;;;10.53;;
11139;SDS011;5624;49.388;11.350;2022-12-18T11:28:35;21.40;;;11.40;;
11139;SDS011;5624;49.388;11.350;2022-12-18T11:33:52;24.17;;;11.97;;
11139;SDS011;5624;49.388;11.350;2022-12-18T11:36:32;30.57;;;12.77;;
11139;SDS011;5624;49.388;11.350;2022-12-18T11:39:02;25.67;;;13.13;;
11139;SDS011;5624;49.388;11.350;2022-12-18T11:41:41;24.00;;;12.03;;
11139;SDS011;5624;49.388;11.350;2022-12-18T11:44:45;30.07;;;12.60;;
11139;SDS011;5624;49.388;11.350;2022-12-18T11:49:53;25.97;;;12.07;;
11139;SDS011;5624;49.388;11.350;2022-12-18T11:52:26;19.33;;;10.07;;
11139;SDS011;5624;49.388;11.350;2022-12-18T11:55:07;32.70;;;16.40;;
11139;SDS011;5624;49.388;11.350;2022-12-18T12:00:15;20.67;;;10.47;;
11139;SDS011;5624;49.388;11.350;2022-12-18T12:08:56;22.23;;;10.43;;
11139;SDS011;5624;49.388;11.350;2022-12-18T12:22:09;19.83;;;10.17;;
11139;SDS011;5624;49.388;11.350;2022-12-18T12:27:49;18.40;;;8.80;;
11139;SDS011;5624;49.388;11.350;2022-12-18T12:35:47;23.60;;;10.07;;
11139;SDS011;5624;49.388;11.350;2022-12-18T12:38:20;21.80;;;10.97;;
11139;SDS011;5624;49.388;11.350;2022-12-18T12:41:09;18.63;;;9.53;;
11139;SDS011;5624;49.388;11.350;2022-12-18T12:44:01;19.77;;;11.20;;
11139;SDS011;5624;49.388;11.350;2022-12-18T12:46:31;24.93;;;11.53;;
11139;SDS011;5624;49.388;11.350;2022-12-18T12:49:02;25.33;;;11.63;;
11139;SDS011;5624;49.388;11.350;2022-12-18T12:51:37;23.93;;;11.90;;
11139;SDS011;5624;49.388;11.350;2022-12-18T12:54:08;27.43;;;11.40;;
11139;SDS011;5624;49.388;11.350;2022-12-18T12:56:45;21.03;;;11.97;;
11139;SDS011;5624;49.388;11.350;2022-12-18T13:02:30;24.03;;;11.23;;
11139;SDS011;5624;49.388;11.350;2022-12-18T13:07:52;24.93;;;12.67;;
11139;SDS011;5624;49.388;11.350;2022-12-18T13:10:24;19.03;;;9.57;;
11139;SDS011;5624;49.388;11.350;2022-12-18T13:12:57;17.77;;;8.83;;
11139;SDS011;5624;49.388;11.350;2022-12-18T13:18:03;19.83;;;10.77;;
11139;SDS011;5624;49.388;11.350;2022-12-18T13:20:48;22.77;;;11.60;;
11139;SDS011;5624;49.388;11.350;2022-12-18T13:25:49;25.97;;;11.73;;
11139;SDS011;5624;49.388;11.350;2022-12-18T13:28:17;17.57;;;8.87;;
11139;SDS011;5624;49.388;11.350;2022-12-18T13:30:49;27.03;;;13.07;;
11139;SDS011;5624;49.388;11.350;2022-12-18T13:43:35;22.57;;;11.57;;
11139;SDS011;5624;49.388;11.350;2022-12-18T13:48:54;23.30;;;12.70;;
11139;SDS011;5624;49.388;11.350;2022-12-18T13:51:21;15.73;;;8.90;;
11139;SDS011;5624;49.388;11.350;2022-12-18T13:53:50;16.53;;;9.57;;
11139;SDS011;5624;49.388;11.350;2022-12-18T13:56:21;23.57;;;12.30;;
11139;SDS011;5624;49.388;11.350;2022-12-18T14:01:33;24.40;;;11.67;;
11139;SDS011;5624;49.388;11.350;2022-12-18T14:04:12;23.73;;;11.93;;
11139;SDS011;5624;49.388;11.350;2022-12-18T14:06:45;18.40;;;9.97;;
11139;SDS011;5624;49.388;11.350;2022-12-18T14:09:13;14.90;;;7.20;;
11139;SDS011;5624;49.388;11.350;2022-12-18T14:11:46;15.73;;;8.60;;
11139;SDS011;5624;49.388;11.350;2022-12-18T14:14:14;23.40;;;10.77;;
11139;SDS011;5624;49.388;11.350;2022-12-18T14:16:41;24.30;;;12.27;;
11139;SDS011;5624;49.388;11.350;2022-12-18T14:19:13;22.10;;;10.83;;
11139;SDS011;5624;49.388;11.350;2022-12-18T14:21:45;24.50;;;11.40;;
11139;SDS011;5624;49.388;11.350;2022-12-18T14:24:15;25.07;;;13.60;;
11139;SDS011;5624;49.388;11.350;2022-12-18T14:26:47;21.30;;;10.00;;
11139;SDS011;5624;49.388;11.350;2022-12-18T14:29:24;28.73;;;13.53;;
11139;SDS011;5624;49.388;11.350;2022-12-18T14:34:41;25.47;;;10.60;;
11139;SDS011;5624;49.388;11.350;2022-12-18T14:37:10;24.63;;;12.20;;
11139;SDS011;5624;49.388;11.350;2022-12-18T14:39:38;33.83;;;15.23;;
11139;SDS011;5624;49.388;11.350;2022-12-18T14:42:04;39.33;;;18.07;;
11139;SDS011;5624;49.388;11.350;2022-12-18T14:44:29;25.40;;;13.03;;
11139;SDS011;5624;49.388;11.350;2022-12-18T14:46:55;30.97;;;15.37;;
11139;SDS011;5624;49.388;11.350;2022-12-18T14:52:00;35.53;;;20.07;;
11139;SDS011;5624;49.388;11.350;2022-12-18T14:54:27;37.17;;;21.07;;
11139;SDS011;5624;49.388;11.350;2022-12-18T14:59:28;32.37;;;17.83;;
11139;SDS011;5624;49.388;11.350;2022-12-18T15:04:43;27.53;;;17.10;;
11139;SDS011;5624;49.388;11.350;2022-12-18T15:09:38;29.23;;;17.20;;
11139;SDS011;5624;49.388;11.350;2022-12-18T15:12:15;27.87;;;17.07;;
11139;SDS011;5624;49.388;11.350;2022-12-18T15:14:49;27.30;;;16.80;;
11139;SDS011;5624;49.388;11.350;2022-12-18T15:17:19;24.40;;;15.57;;
11139;SDS011;5624;49.388;11.350;2022-12-18T15:19:47;30.13;;;16.93;;
11139;SDS011;5624;49.388;11.350;2022-12-18T15:22:22;23.90;;;12.23;;
11139;SDS011;5624;49.388;11.350;2022-12-18T15:24:54;23.83;;;12.13;;
11139;SDS011;5624;49.388;11.350;2022-12-18T15:27:34;20.40;;;8.30;;
11139;SDS011;5624;49.388;11.350;2022-12-18T15:32:38;25.30;;;12.67;;
11139;SDS011;5624;49.388;11.350;2022-12-18T15:37:33;26.77;;;13.03;;
11139;SDS011;5624;49.388;11.350;2022-12-18T15:39:59;23.80;;;12.20;;
11139;SDS011;5624;49.388;11.350;2022-12-18T15:42:25;25.53;;;15.07;;
11139;SDS011;5624;49.388;11.350;2022-12-18T15:45:12;28.23;;;16.17;;
11139;SDS011;5624;49.388;11.350;2022-12-18T15:47:38;25.23;;;14.83;;
11139;SDS011;5624;49.388;11.350;2022-12-18T15:50:04;24.33;;;15.93;;
11139;SDS011;5624;49.388;11.350;2022-12-18T15:52:35;26.07;;;16.67;;
11139;SDS011;5624;49.388;11.350;2022-12-18T15:55:13;26.33;;;16.83;;
11139;SDS011;5624;49.388;11.350;2022-12-18T15:58:00;27.53;;;16.10;;
11139;SDS011;5624;49.388;11.350;2022-12-18T16:00:25;25.80;;;15.77;;
11139;SDS011;5624;49.388;11.350;2022-12-18T16:02:51;25.13;;;12.63;;
11139;SDS011;5624;49.388;11.350;2022-12-18T16:05:18;22.03;;;12.47;;
11139;SDS011;5624;49.388;11.350;2022-12-18T16:07:45;23.10;;;11.27;;
11139;SDS011;5624;49.388;11.350;2022-12-18T16:10:11;17.17;;;9.20;;
11139;SDS011;5624;49.388;11.350;2022-12-18T16:12:37;21.00;;;11.53;;
11139;SDS011;5624;49.388;11.350;2022-12-18T16:15:04;23.53;;;11.87;;
11139;SDS011;5624;49.388;11.350;2022-12-18T16:17:30;17.43;;;9.53;;
11139;SDS011;5624;49.388;11.350;2022-12-18T16:19:56;24.63;;;10.80;;
11139;SDS011;5624;49.388;11.350;2022-12-18T16:22:27;26.33;;;15.27;;
11139;SDS011;5624;49.388;11.350;2022-12-18T16:24:54;26.00;;;15.73;;
11139;SDS011;5624;49.388;11.350;2022-12-18T16:27:21;26.03;;;15.17;;
11139;SDS011;5624;49.388;11.350;2022-12-18T16:29:47;27.90;;;17.60;;
11139;SDS011;5624;49.388;11.350;2022-12-18T16:32:14;27.30;;;15.93;;
11139;SDS011;5624;49.388;11.350;2022-12-18T16:34:44;27.93;;;16.70;;
11139;SDS011;5624;49.388;11.350;2022-12-18T16:37:11;27.33;;;15.87;;
11139;SDS011;5624;49.388;11.350;2022-12-18T16:39:38;27.97;;;18.27;;
11139;SDS011;5624;49.388;11.350;2022-12-18T16:42:06;26.90;;;17.87;;